sensor_id;sensor_type;location;lat;lon;timestamp;P1;durP1;ratioP1;P2;durP2;ratioP2
28003;SDS011;15330;51.234;6.754;2023-03-15T00:01:18;17.95;;;4.28;;
28003;SDS011;15330;51.234;6.754;2023-03-15T00:03:45;18.05;;;4.82;;
28003;SDS011;15330;51.234;6.754;2023-03-15T00:06:11;14.40;;;4.65;;
28003;SDS011;15330;51.234;6.754;2023-03-15T00:08:37;19.80;;;5.05;;
28003;SDS011;15330;51.234;6.754;2023-03-15T00:11:02;18.80;;;4.55;;
28003;SDS011;15330;51.234;6.754;2023-03-15T00:13:28;22.77;;;5.53;;
28003;SDS011;15330;51.234;6.754;2023-03-15T00:15:55;18.63;;;5.43;;
28003;SDS011;15330;51.234;6.754;2023-03-15T00:18:22;15.38;;;5.03;;
28003;SDS011;15330;51.234;6.754;2023-03-15T00:20:47;21.67;;;5.10;;
28003;SDS011;15330;51.234;6.754;2023-03-15T00:23:13;10.77;;;4.82;;
28003;SDS011;15330;51.234;6.754;2023-03-15T00:25:45;11.20;;;4.22;;
28003;SDS011;15330;51.234;6.754;2023-03-15T00:28:11;13.30;;;4.38;;
28003;SDS011;15330;51.234;6.754;2023-03-15T00:30:37;14.30;;;4.13;;
28003;SDS011;15330;51.234;6.754;2023-03-15T00:33:03;12.77;;;4.28;;
28003;SDS011;15330;51.234;6.754;2023-03-15T00:35:30;14.73;;;3.22;;
28003;SDS011;15330;51.234;6.754;2023-03-15T00:37:57;13.88;;;4.55;;
28003;SDS011;15330;51.234;6.754;2023-03-15T00:40:23;13.65;;;4.18;;
28003;SDS011;15330;51.234;6.754;2023-03-15T00:42:49;10.60;;;4.32;;
28003;SDS011;15330;51.234;6.754;2023-03-15T00:45:18;16.60;;;4.40;;
28003;SDS011;15330;51.234;6.754;2023-03-15T00:47:48;11.45;;;4.10;;
28003;SDS011;15330;51.234;6.754;2023-03-15T00:50:15;15.48;;;4.68;;
28003;SDS011;15330;51.234;6.754;2023-03-15T00:52:40;11.15;;;4.90;;
28003;SDS011;15330;51.234;6.754;2023-03-15T00:55:09;9.90;;;4.18;;
28003;SDS011;15330;51.234;6.754;2023-03-15T00:57:37;14.07;;;4.70;;
28003;SDS011;15330;51.234;6.754;2023-03-15T01:00:04;10.68;;;4.85;;
28003;SDS011;15330;51.234;6.754;2023-03-15T01:02:32;15.63;;;5.55;;
28003;SDS011;15330;51.234;6.754;2023-03-15T01:04:58;14.75;;;5.28;;
28003;SDS011;15330;51.234;6.754;2023-03-15T01:07:23;14.65;;;5.85;;
28003;SDS011;15330;51.234;6.754;2023-03-15T01:09:49;11.35;;;5.18;;
28003;SDS011;15330;51.234;6.754;2023-03-15T01:12:15;14.15;;;5.55;;
28003;SDS011;15330;51.234;6.754;2023-03-15T01:14:40;14.77;;;6.03;;
28003;SDS011;15330;51.234;6.754;2023-03-15T01:17:05;13.18;;;5.93;;
28003;SDS011;15330;51.234;6.754;2023-03-15T01:19:31;10.73;;;5.55;;
28003;SDS011;15330;51.234;6.754;2023-03-15T01:21:56;14.02;;;5.28;;
28003;SDS011;15330;51.234;6.754;2023-03-15T01:24:21;11.45;;;5.47;;
28003;SDS011;15330;51.234;6.754;2023-03-15T01:26:47;11.15;;;5.90;;
28003;SDS011;15330;51.234;6.754;2023-03-15T01:29:12;13.93;;;6.20;;
28003;SDS011;15330;51.234;6.754;2023-03-15T01:31:39;19.67;;;6.70;;
28003;SDS011;15330;51.234;6.754;2023-03-15T01:34:04;18.55;;;6.57;;
28003;SDS011;15330;51.234;6.754;2023-03-15T01:36:29;21.38;;;6.72;;
28003;SDS011;15330;51.234;6.754;2023-03-15T01:38:55;18.08;;;6.40;;
28003;SDS011;15330;51.234;6.754;2023-03-15T01:41:21;17.00;;;6.10;;
28003;SDS011;15330;51.234;6.754;2023-03-15T01:43:48;17.60;;;6.82;;
28003;SDS011;15330;51.234;6.754;2023-03-15T01:57:30;16.13;;;6.10;;
28003;SDS011;15330;51.234;6.754;2023-03-15T02:00:02;16.20;;;6.95;;
28003;SDS011;15330;51.234;6.754;2023-03-15T02:02:40;20.70;;;6.85;;
28003;SDS011;15330;51.234;6.754;2023-03-15T02:05:12;12.57;;;6.10;;
28003;SDS011;15330;51.234;6.754;2023-03-15T02:07:44;16.67;;;6.55;;
28003;SDS011;15330;51.234;6.754;2023-03-15T02:10:15;18.02;;;7.40;;
28003;SDS011;15330;51.234;6.754;2023-03-15T02:12:46;16.42;;;7.68;;
28003;SDS011;15330;51.234;6.754;2023-03-15T02:15:15;17.98;;;6.88;;
28003;SDS011;15330;51.234;6.754;2023-03-15T02:17:43;14.00;;;7.40;;
28003;SDS011;15330;51.234;6.754;2023-03-15T02:25:20;15.52;;;7.55;;
28003;SDS011;15330;51.234;6.754;2023-03-15T02:27:50;20.73;;;7.50;;
28003;SDS011;15330;51.234;6.754;2023-03-15T02:30:16;18.73;;;6.82;;
28003;SDS011;15330;51.234;6.754;2023-03-15T02:32:42;7.95;;;5.13;;
28003;SDS011;15330;51.234;6.754;2023-03-15T02:35:07;13.02;;;5.90;;
28003;SDS011;15330;51.234;6.754;2023-03-15T02:37:33;9.77;;;5.00;;
28003;SDS011;15330;51.234;6.754;2023-03-15T02:39:58;8.93;;;5.25;;
28003;SDS011;15330;51.234;6.754;2023-03-15T02:42:24;6.50;;;3.90;;
28003;SDS011;15330;51.234;6.754;2023-03-15T02:44:50;7.28;;;4.32;;
28003;SDS011;15330;51.234;6.754;2023-03-15T02:47:21;8.85;;;3.90;;
28003;SDS011;15330;51.234;6.754;2023-03-15T02:49:51;6.00;;;3.65;;
28003;SDS011;15330;51.234;6.754;2023-03-15T02:52:20;7.75;;;4.32;;
28003;SDS011;15330;51.234;6.754;2023-03-15T02:54:47;9.15;;;4.60;;
28003;SDS011;15330;51.234;6.754;2023-03-15T02:57:13;7.10;;;4.80;;
28003;SDS011;15330;51.234;6.754;2023-03-15T02:59:39;8.48;;;5.40;;
28003;SDS011;15330;51.234;6.754;2023-03-15T03:02:06;9.55;;;6.22;;
28003;SDS011;15330;51.234;6.754;2023-03-15T03:04:35;8.82;;;5.93;;
28003;SDS011;15330;51.234;6.754;2023-03-15T03:07:04;10.82;;;6.70;;
28003;SDS011;15330;51.234;6.754;2023-03-15T03:09:30;11.50;;;7.13;;
28003;SDS011;15330;51.234;6.754;2023-03-15T03:11:55;13.15;;;6.93;;
28003;SDS011;15330;51.234;6.754;2023-03-15T03:14:20;9.85;;;7.47;;
28003;SDS011;15330;51.234;6.754;2023-03-15T03:16:49;13.40;;;7.88;;
28003;SDS011;15330;51.234;6.754;2023-03-15T03:19:15;11.90;;;8.02;;
28003;SDS011;15330;51.234;6.754;2023-03-15T03:21:41;14.73;;;8.15;;
28003;SDS011;15330;51.234;6.754;2023-03-15T03:24:10;11.40;;;7.22;;
28003;SDS011;15330;51.234;6.754;2023-03-15T03:26:40;10.35;;;7.40;;
28003;SDS011;15330;51.234;6.754;2023-03-15T03:29:05;11.13;;;7.55;;
28003;SDS011;15330;51.234;6.754;2023-03-15T03:31:30;15.07;;;8.23;;
28003;SDS011;15330;51.234;6.754;2023-03-15T03:33:59;11.20;;;7.95;;
28003;SDS011;15330;51.234;6.754;2023-03-15T03:36:24;15.30;;;9.40;;
28003;SDS011;15330;51.234;6.754;2023-03-15T03:38:50;13.60;;;8.35;;
28003;SDS011;15330;51.234;6.754;2023-03-15T03:41:16;11.57;;;8.82;;
28003;SDS011;15330;51.234;6.754;2023-03-15T03:43:41;12.32;;;8.10;;
28003;SDS011;15330;51.234;6.754;2023-03-15T03:46:07;13.15;;;8.50;;
28003;SDS011;15330;51.234;6.754;2023-03-15T03:48:33;12.38;;;9.20;;
28003;SDS011;15330;51.234;6.754;2023-03-15T03:50:59;15.43;;;9.18;;
28003;SDS011;15330;51.234;6.754;2023-03-15T03:53:24;12.18;;;8.23;;
28003;SDS011;15330;51.234;6.754;2023-03-15T03:55:50;11.30;;;8.93;;
28003;SDS011;15330;51.234;6.754;2023-03-15T03:58:16;12.60;;;8.95;;
28003;SDS011;15330;51.234;6.754;2023-03-15T04:00:41;11.00;;;8.40;;
28003;SDS011;15330;51.234;6.754;2023-03-15T04:03:07;15.02;;;9.20;;
28003;SDS011;15330;51.234;6.754;2023-03-15T04:05:33;12.45;;;8.73;;
28003;SDS011;15330;51.234;6.754;2023-03-15T04:07:58;12.73;;;9.27;;
28003;SDS011;15330;51.234;6.754;2023-03-15T04:10:24;14.68;;;9.63;;
28003;SDS011;15330;51.234;6.754;2023-03-15T04:12:53;12.82;;;8.85;;
28003;SDS011;15330;51.234;6.754;2023-03-15T04:15:19;16.10;;;9.48;;
28003;SDS011;15330;51.234;6.754;2023-03-15T04:17:52;14.45;;;9.40;;
28003;SDS011;15330;51.234;6.754;2023-03-15T04:20:23;14.82;;;9.80;;
28003;SDS011;15330;51.234;6.754;2023-03-15T04:22:50;12.90;;;9.20;;
28003;SDS011;15330;51.234;6.754;2023-03-15T04:25:15;11.93;;;8.57;;
28003;SDS011;15330;51.234;6.754;2023-03-15T04:27:42;13.38;;;8.82;;
28003;SDS011;15330;51.234;6.754;2023-03-15T04:30:08;12.80;;;9.35;;
28003;SDS011;15330;51.234;6.754;2023-03-15T04:32:34;13.52;;;9.18;;
28003;SDS011;15330;51.234;6.754;2023-03-15T04:35:00;12.20;;;8.65;;
28003;SDS011;15330;51.234;6.754;2023-03-15T04:37:29;11.05;;;8.57;;
28003;SDS011;15330;51.234;6.754;2023-03-15T04:39:58;12.48;;;9.13;;
28003;SDS011;15330;51.234;6.754;2023-03-15T04:42:25;12.60;;;8.63;;
28003;SDS011;15330;51.234;6.754;2023-03-15T04:44:50;13.10;;;9.00;;
28003;SDS011;15330;51.234;6.754;2023-03-15T04:47:17;13.35;;;8.40;;
28003;SDS011;15330;51.234;6.754;2023-03-15T04:49:44;13.13;;;8.63;;
28003;SDS011;15330;51.234;6.754;2023-03-15T04:52:09;11.48;;;8.43;;
28003;SDS011;15330;51.234;6.754;2023-03-15T04:54:35;12.50;;;8.98;;
28003;SDS011;15330;51.234;6.754;2023-03-15T04:57:03;11.85;;;7.93;;
28003;SDS011;15330;51.234;6.754;2023-03-15T04:59:29;15.07;;;8.25;;
28003;SDS011;15330;51.234;6.754;2023-03-15T05:01:55;11.55;;;8.80;;
28003;SDS011;15330;51.234;6.754;2023-03-15T05:04:20;11.40;;;8.40;;
28003;SDS011;15330;51.234;6.754;2023-03-15T05:06:45;12.88;;;8.35;;
28003;SDS011;15330;51.234;6.754;2023-03-15T05:09:11;14.35;;;8.45;;
28003;SDS011;15330;51.234;6.754;2023-03-15T05:11:42;12.45;;;8.68;;
28003;SDS011;15330;51.234;6.754;2023-03-15T05:14:09;13.60;;;9.45;;
28003;SDS011;15330;51.234;6.754;2023-03-15T05:16:34;13.77;;;9.18;;
28003;SDS011;15330;51.234;6.754;2023-03-15T05:19:00;13.63;;;9.70;;
28003;SDS011;15330;51.234;6.754;2023-03-15T05:21:25;16.75;;;10.35;;
28003;SDS011;15330;51.234;6.754;2023-03-15T05:23:50;16.77;;;11.05;;
28003;SDS011;15330;51.234;6.754;2023-03-15T05:26:16;14.52;;;9.73;;
28003;SDS011;15330;51.234;6.754;2023-03-15T05:28:41;13.18;;;9.68;;
28003;SDS011;15330;51.234;6.754;2023-03-15T05:31:09;15.07;;;9.90;;
28003;SDS011;15330;51.234;6.754;2023-03-15T05:33:34;15.00;;;10.35;;
28003;SDS011;15330;51.234;6.754;2023-03-15T05:36:00;15.05;;;10.48;;
28003;SDS011;15330;51.234;6.754;2023-03-15T05:38:25;16.85;;;11.07;;
28003;SDS011;15330;51.234;6.754;2023-03-15T05:40:51;15.80;;;10.55;;
28003;SDS011;15330;51.234;6.754;2023-03-15T05:43:19;16.33;;;11.18;;
28003;SDS011;15330;51.234;6.754;2023-03-15T05:45:45;17.90;;;12.23;;
28003;SDS011;15330;51.234;6.754;2023-03-15T05:48:12;17.55;;;11.88;;
28003;SDS011;15330;51.234;6.754;2023-03-15T05:50:38;18.95;;;12.23;;
28003;SDS011;15330;51.234;6.754;2023-03-15T05:53:03;17.83;;;12.25;;
28003;SDS011;15330;51.234;6.754;2023-03-15T05:55:29;18.55;;;11.90;;
28003;SDS011;15330;51.234;6.754;2023-03-15T05:57:54;16.38;;;11.27;;
28003;SDS011;15330;51.234;6.754;2023-03-15T06:00:20;16.75;;;10.60;;
28003;SDS011;15330;51.234;6.754;2023-03-15T06:02:45;19.83;;;11.80;;
28003;SDS011;15330;51.234;6.754;2023-03-15T06:05:11;18.38;;;11.75;;
28003;SDS011;15330;51.234;6.754;2023-03-15T06:07:37;16.17;;;10.75;;
28003;SDS011;15330;51.234;6.754;2023-03-15T06:10:02;16.75;;;11.95;;
28003;SDS011;15330;51.234;6.754;2023-03-15T06:12:28;18.88;;;12.07;;
28003;SDS011;15330;51.234;6.754;2023-03-15T06:14:57;16.88;;;11.68;;
28003;SDS011;15330;51.234;6.754;2023-03-15T06:17:22;21.00;;;12.35;;
28003;SDS011;15330;51.234;6.754;2023-03-15T06:19:47;17.60;;;12.25;;
28003;SDS011;15330;51.234;6.754;2023-03-15T06:22:13;20.48;;;13.20;;
28003;SDS011;15330;51.234;6.754;2023-03-15T06:24:38;19.63;;;13.15;;
28003;SDS011;15330;51.234;6.754;2023-03-15T06:27:04;19.70;;;12.65;;
28003;SDS011;15330;51.234;6.754;2023-03-15T06:29:29;19.48;;;13.23;;
28003;SDS011;15330;51.234;6.754;2023-03-15T06:31:55;20.10;;;12.88;;
28003;SDS011;15330;51.234;6.754;2023-03-15T06:34:20;20.20;;;12.55;;
28003;SDS011;15330;51.234;6.754;2023-03-15T06:36:46;18.50;;;12.15;;
28003;SDS011;15330;51.234;6.754;2023-03-15T06:39:13;20.30;;;12.38;;
28003;SDS011;15330;51.234;6.754;2023-03-15T06:41:39;17.40;;;11.32;;
28003;SDS011;15330;51.234;6.754;2023-03-15T06:44:08;21.08;;;12.52;;
28003;SDS011;15330;51.234;6.754;2023-03-15T06:46:33;18.80;;;12.18;;
28003;SDS011;15330;51.234;6.754;2023-03-15T06:48:59;22.67;;;12.50;;
28003;SDS011;15330;51.234;6.754;2023-03-15T06:51:24;18.10;;;12.15;;
28003;SDS011;15330;51.234;6.754;2023-03-15T06:53:50;21.08;;;12.40;;
28003;SDS011;15330;51.234;6.754;2023-03-15T06:56:18;20.10;;;11.80;;
28003;SDS011;15330;51.234;6.754;2023-03-15T06:58:44;21.42;;;13.07;;
28003;SDS011;15330;51.234;6.754;2023-03-15T07:01:13;18.67;;;11.68;;
28003;SDS011;15330;51.234;6.754;2023-03-15T07:03:39;20.08;;;12.25;;
28003;SDS011;15330;51.234;6.754;2023-03-15T07:06:05;20.90;;;11.88;;
28003;SDS011;15330;51.234;6.754;2023-03-15T07:08:31;17.40;;;12.00;;
28003;SDS011;15330;51.234;6.754;2023-03-15T07:10:57;20.42;;;11.85;;
28003;SDS011;15330;51.234;6.754;2023-03-15T07:13:23;21.33;;;12.95;;
28003;SDS011;15330;51.234;6.754;2023-03-15T07:15:52;22.58;;;13.93;;
28003;SDS011;15330;51.234;6.754;2023-03-15T07:18:18;30.20;;;16.85;;
28003;SDS011;15330;51.234;6.754;2023-03-15T07:20:44;22.73;;;13.82;;
28003;SDS011;15330;51.234;6.754;2023-03-15T07:23:09;22.17;;;14.88;;
28003;SDS011;15330;51.234;6.754;2023-03-15T07:25:35;27.77;;;14.00;;
28003;SDS011;15330;51.234;6.754;2023-03-15T07:28:00;25.23;;;13.90;;
28003;SDS011;15330;51.234;6.754;2023-03-15T07:30:26;58.05;;;28.48;;
28003;SDS011;15330;51.234;6.754;2023-03-15T07:32:51;32.90;;;17.58;;
28003;SDS011;15330;51.234;6.754;2023-03-15T07:35:17;23.58;;;13.68;;
28003;SDS011;15330;51.234;6.754;2023-03-15T07:37:42;25.15;;;14.38;;
28003;SDS011;15330;51.234;6.754;2023-03-15T07:40:08;28.48;;;15.85;;
28003;SDS011;15330;51.234;6.754;2023-03-15T07:42:35;24.45;;;13.57;;
28003;SDS011;15330;51.234;6.754;2023-03-15T07:45:02;47.83;;;25.02;;
28003;SDS011;15330;51.234;6.754;2023-03-15T07:47:29;34.30;;;19.50;;
28003;SDS011;15330;51.234;6.754;2023-03-15T07:49:54;24.70;;;13.23;;
28003;SDS011;15330;51.234;6.754;2023-03-15T07:52:20;25.42;;;13.30;;
28003;SDS011;15330;51.234;6.754;2023-03-15T07:54:46;27.55;;;15.18;;
28003;SDS011;15330;51.234;6.754;2023-03-15T07:57:11;32.55;;;15.65;;
28003;SDS011;15330;51.234;6.754;2023-03-15T07:59:37;29.13;;;14.02;;
28003;SDS011;15330;51.234;6.754;2023-03-15T08:02:03;27.80;;;11.68;;
28003;SDS011;15330;51.234;6.754;2023-03-15T08:04:29;18.70;;;10.48;;
28003;SDS011;15330;51.234;6.754;2023-03-15T08:06:55;20.48;;;12.30;;
28003;SDS011;15330;51.234;6.754;2023-03-15T08:09:21;22.17;;;11.70;;
28003;SDS011;15330;51.234;6.754;2023-03-15T08:11:47;36.22;;;14.32;;
28003;SDS011;15330;51.234;6.754;2023-03-15T08:14:13;16.52;;;8.95;;
28003;SDS011;15330;51.234;6.754;2023-03-15T08:16:38;17.17;;;8.52;;
28003;SDS011;15330;51.234;6.754;2023-03-15T08:19:04;34.55;;;15.75;;
28003;SDS011;15330;51.234;6.754;2023-03-15T08:21:30;59.97;;;29.27;;
28003;SDS011;15330;51.234;6.754;2023-03-15T08:23:57;22.48;;;11.27;;
28003;SDS011;15330;51.234;6.754;2023-03-15T08:26:23;40.90;;;20.42;;
28003;SDS011;15330;51.234;6.754;2023-03-15T08:28:49;44.10;;;22.17;;
28003;SDS011;15330;51.234;6.754;2023-03-15T08:31:14;14.38;;;7.45;;
28003;SDS011;15330;51.234;6.754;2023-03-15T08:33:40;45.17;;;21.05;;
28003;SDS011;15330;51.234;6.754;2023-03-15T08:36:06;11.25;;;7.28;;
28003;SDS011;15330;51.234;6.754;2023-03-15T08:38:31;16.23;;;8.52;;
28003;SDS011;15330;51.234;6.754;2023-03-15T08:40:57;38.38;;;19.85;;
28003;SDS011;15330;51.234;6.754;2023-03-15T08:43:22;13.48;;;7.90;;
28003;SDS011;15330;51.234;6.754;2023-03-15T08:45:48;18.25;;;9.25;;
28003;SDS011;15330;51.234;6.754;2023-03-15T08:48:14;19.10;;;9.93;;
28003;SDS011;15330;51.234;6.754;2023-03-15T08:50:39;11.35;;;6.90;;
28003;SDS011;15330;51.234;6.754;2023-03-15T08:53:05;15.48;;;6.60;;
28003;SDS011;15330;51.234;6.754;2023-03-15T08:55:30;11.10;;;6.28;;
28003;SDS011;15330;51.234;6.754;2023-03-15T08:57:55;15.00;;;7.95;;
28003;SDS011;15330;51.234;6.754;2023-03-15T09:00:21;16.70;;;9.30;;
28003;SDS011;15330;51.234;6.754;2023-03-15T09:02:51;16.33;;;9.20;;
28003;SDS011;15330;51.234;6.754;2023-03-15T09:05:16;11.05;;;5.85;;
28003;SDS011;15330;51.234;6.754;2023-03-15T09:07:42;12.13;;;7.10;;
28003;SDS011;15330;51.234;6.754;2023-03-15T09:10:09;13.85;;;9.18;;
28003;SDS011;15330;51.234;6.754;2023-03-15T09:12:37;8.10;;;4.97;;
28003;SDS011;15330;51.234;6.754;2023-03-15T09:15:02;11.20;;;6.65;;
28003;SDS011;15330;51.234;6.754;2023-03-15T09:17:28;5.97;;;3.83;;
28003;SDS011;15330;51.234;6.754;2023-03-15T09:19:53;8.95;;;4.18;;
28003;SDS011;15330;51.234;6.754;2023-03-15T09:22:19;10.00;;;5.25;;
28003;SDS011;15330;51.234;6.754;2023-03-15T09:24:44;9.32;;;5.82;;
28003;SDS011;15330;51.234;6.754;2023-03-15T09:27:09;8.45;;;4.95;;
28003;SDS011;15330;51.234;6.754;2023-03-15T09:29:35;12.95;;;7.03;;
28003;SDS011;15330;51.234;6.754;2023-03-15T09:32:01;10.32;;;5.32;;
28003;SDS011;15330;51.234;6.754;2023-03-15T09:34:27;11.93;;;6.20;;
28003;SDS011;15330;51.234;6.754;2023-03-15T09:36:53;9.95;;;6.88;;
28003;SDS011;15330;51.234;6.754;2023-03-15T09:39:19;12.00;;;6.65;;
28003;SDS011;15330;51.234;6.754;2023-03-15T09:41:52;16.65;;;8.52;;
28003;SDS011;15330;51.234;6.754;2023-03-15T09:52:42;11.88;;;8.25;;
28003;SDS011;15330;51.234;6.754;2023-03-15T09:55:14;9.20;;;6.28;;
28003;SDS011;15330;51.234;6.754;2023-03-15T09:57:53;8.45;;;6.93;;
28003;SDS011;15330;51.234;6.754;2023-03-15T10:00:36;8.93;;;4.18;;
28003;SDS011;15330;51.234;6.754;2023-03-15T10:03:11;11.65;;;7.00;;
28003;SDS011;15330;51.234;6.754;2023-03-15T10:06:19;11.00;;;5.47;;
28003;SDS011;15330;51.234;6.754;2023-03-15T10:08:47;7.40;;;5.10;;
28003;SDS011;15330;51.234;6.754;2023-03-15T10:11:37;10.70;;;5.40;;
28003;SDS011;15330;51.234;6.754;2023-03-15T10:14:14;7.90;;;4.60;;
28003;SDS011;15330;51.234;6.754;2023-03-15T10:16:47;11.05;;;5.32;;
28003;SDS011;15330;51.234;6.754;2023-03-15T10:22:32;6.90;;;4.05;;
28003;SDS011;15330;51.234;6.754;2023-03-15T10:27:54;15.73;;;4.85;;
28003;SDS011;15330;51.234;6.754;2023-03-15T10:30:35;8.63;;;4.50;;
28003;SDS011;15330;51.234;6.754;2023-03-15T10:35:42;11.20;;;5.03;;
28003;SDS011;15330;51.234;6.754;2023-03-15T10:38:18;13.38;;;6.85;;
28003;SDS011;15330;51.234;6.754;2023-03-15T10:45:45;18.83;;;7.68;;
28003;SDS011;15330;51.234;6.754;2023-03-15T10:48:21;19.55;;;10.73;;
28003;SDS011;15330;51.234;6.754;2023-03-15T10:50:47;16.60;;;7.75;;
28003;SDS011;15330;51.234;6.754;2023-03-15T10:53:15;14.52;;;6.00;;
28003;SDS011;15330;51.234;6.754;2023-03-15T10:55:46;19.27;;;9.82;;
28003;SDS011;15330;51.234;6.754;2023-03-15T11:00:47;9.88;;;4.20;;
28003;SDS011;15330;51.234;6.754;2023-03-15T11:03:19;15.98;;;5.30;;
28003;SDS011;15330;51.234;6.754;2023-03-15T11:05:52;20.63;;;9.63;;
28003;SDS011;15330;51.234;6.754;2023-03-15T11:08:21;20.08;;;9.65;;
28003;SDS011;15330;51.234;6.754;2023-03-15T11:10:55;27.17;;;13.23;;
28003;SDS011;15330;51.234;6.754;2023-03-15T11:13:23;16.90;;;7.85;;
28003;SDS011;15330;51.234;6.754;2023-03-15T11:16:01;12.35;;;4.90;;
28003;SDS011;15330;51.234;6.754;2023-03-15T11:21:00;8.02;;;3.28;;
28003;SDS011;15330;51.234;6.754;2023-03-15T11:23:31;10.13;;;3.17;;
28003;SDS011;15330;51.234;6.754;2023-03-15T11:26:00;7.50;;;2.45;;
28003;SDS011;15330;51.234;6.754;2023-03-15T11:28:27;8.70;;;3.10;;
28003;SDS011;15330;51.234;6.754;2023-03-15T11:30:56;27.17;;;12.38;;
28003;SDS011;15330;51.234;6.754;2023-03-15T11:33:27;13.45;;;5.15;;
28003;SDS011;15330;51.234;6.754;2023-03-15T11:35:58;8.68;;;2.55;;
28003;SDS011;15330;51.234;6.754;2023-03-15T11:38:32;6.97;;;2.38;;
28003;SDS011;15330;51.234;6.754;2023-03-15T11:41:04;6.30;;;2.47;;
28003;SDS011;15330;51.234;6.754;2023-03-15T11:44:40;6.95;;;2.90;;
28003;SDS011;15330;51.234;6.754;2023-03-15T11:46:38;7.85;;;3.55;;
28003;SDS011;15330;51.234;6.754;2023-03-15T11:51:47;7.40;;;1.83;;
28003;SDS011;15330;51.234;6.754;2023-03-15T11:54:14;36.88;;;16.65;;
28003;SDS011;15330;51.234;6.754;2023-03-15T11:57:00;12.85;;;6.20;;
28003;SDS011;15330;51.234;6.754;2023-03-15T11:59:34;8.77;;;4.00;;
28003;SDS011;15330;51.234;6.754;2023-03-15T12:06:59;6.93;;;2.72;;
28003;SDS011;15330;51.234;6.754;2023-03-15T12:11:56;7.50;;;2.30;;
28003;SDS011;15330;51.234;6.754;2023-03-15T12:14:27;8.02;;;2.78;;
28003;SDS011;15330;51.234;6.754;2023-03-15T12:19:57;9.07;;;2.15;;
28003;SDS011;15330;51.234;6.754;2023-03-15T12:22:33;10.35;;;2.65;;
28003;SDS011;15330;51.234;6.754;2023-03-15T12:25:04;12.02;;;2.42;;
28003;SDS011;15330;51.234;6.754;2023-03-15T12:27:36;5.25;;;2.53;;
28003;SDS011;15330;51.234;6.754;2023-03-15T12:30:05;7.95;;;2.50;;
28003;SDS011;15330;51.234;6.754;2023-03-15T12:32:42;5.43;;;2.35;;
28003;SDS011;15330;51.234;6.754;2023-03-15T12:35:14;12.07;;;3.30;;
28003;SDS011;15330;51.234;6.754;2023-03-15T12:37:44;9.37;;;2.13;;
28003;SDS011;15330;51.234;6.754;2023-03-15T12:47:46;13.35;;;5.80;;
28003;SDS011;15330;51.234;6.754;2023-03-15T12:55:39;9.13;;;2.65;;
28003;SDS011;15330;51.234;6.754;2023-03-15T12:58:05;11.00;;;4.18;;
28003;SDS011;15330;51.234;6.754;2023-03-15T13:00:35;9.55;;;3.25;;
28003;SDS011;15330;51.234;6.754;2023-03-15T13:03:10;9.10;;;3.67;;
28003;SDS011;15330;51.234;6.754;2023-03-15T13:08:24;6.63;;;2.60;;
28003;SDS011;15330;51.234;6.754;2023-03-15T13:11:00;5.18;;;2.42;;
28003;SDS011;15330;51.234;6.754;2023-03-15T13:22:26;6.55;;;2.38;;
28003;SDS011;15330;51.234;6.754;2023-03-15T13:30:31;13.27;;;4.55;;
28003;SDS011;15330;51.234;6.754;2023-03-15T13:41:11;7.03;;;2.67;;
28003;SDS011;15330;51.234;6.754;2023-03-15T13:43:44;9.48;;;3.92;;
28003;SDS011;15330;51.234;6.754;2023-03-15T13:46:10;5.50;;;2.10;;
28003;SDS011;15330;51.234;6.754;2023-03-15T13:48:38;10.63;;;3.20;;
28003;SDS011;15330;51.234;6.754;2023-03-15T14:02:23;4.68;;;2.60;;
28003;SDS011;15330;51.234;6.754;2023-03-15T14:05:02;9.35;;;2.70;;
28003;SDS011;15330;51.234;6.754;2023-03-15T14:07:44;5.47;;;1.67;;
28003;SDS011;15330;51.234;6.754;2023-03-15T14:12:56;9.05;;;1.83;;
28003;SDS011;15330;51.234;6.754;2023-03-15T14:15:36;8.55;;;2.78;;
28003;SDS011;15330;51.234;6.754;2023-03-15T14:20:56;5.88;;;2.25;;
28003;SDS011;15330;51.234;6.754;2023-03-15T14:23:24;5.15;;;1.80;;
28003;SDS011;15330;51.234;6.754;2023-03-15T14:25:52;4.35;;;1.70;;
28003;SDS011;15330;51.234;6.754;2023-03-15T14:28:20;4.90;;;2.70;;
28003;SDS011;15330;51.234;6.754;2023-03-15T14:30:55;9.30;;;2.45;;
28003;SDS011;15330;51.234;6.754;2023-03-15T14:33:23;8.98;;;3.17;;
28003;SDS011;15330;51.234;6.754;2023-03-15T14:35:56;12.05;;;2.10;;
28003;SDS011;15330;51.234;6.754;2023-03-15T14:38:24;9.93;;;3.28;;
28003;SDS011;15330;51.234;6.754;2023-03-15T14:40:51;8.27;;;2.25;;
28003;SDS011;15330;51.234;6.754;2023-03-15T14:43:18;7.40;;;1.85;;
28003;SDS011;15330;51.234;6.754;2023-03-15T14:45:45;7.05;;;2.42;;
28003;SDS011;15330;51.234;6.754;2023-03-15T14:48:25;10.68;;;2.28;;
28003;SDS011;15330;51.234;6.754;2023-03-15T14:50:53;6.20;;;2.20;;
28003;SDS011;15330;51.234;6.754;2023-03-15T14:53:21;9.00;;;2.70;;
28003;SDS011;15330;51.234;6.754;2023-03-15T14:55:49;5.78;;;2.00;;
28003;SDS011;15330;51.234;6.754;2023-03-15T14:58:16;11.82;;;3.78;;
28003;SDS011;15330;51.234;6.754;2023-03-15T15:00:43;4.65;;;2.00;;
28003;SDS011;15330;51.234;6.754;2023-03-15T15:03:33;4.75;;;1.98;;
28003;SDS011;15330;51.234;6.754;2023-03-15T15:06:02;8.05;;;3.15;;
28003;SDS011;15330;51.234;6.754;2023-03-15T15:08:29;9.07;;;2.72;;
28003;SDS011;15330;51.234;6.754;2023-03-15T15:10:55;11.35;;;5.70;;
28003;SDS011;15330;51.234;6.754;2023-03-15T15:13:23;9.98;;;2.75;;
28003;SDS011;15330;51.234;6.754;2023-03-15T15:15:50;8.63;;;2.40;;
28003;SDS011;15330;51.234;6.754;2023-03-15T15:18:16;6.25;;;2.85;;
28003;SDS011;15330;51.234;6.754;2023-03-15T15:20:42;11.10;;;4.93;;
28003;SDS011;15330;51.234;6.754;2023-03-15T15:23:09;11.05;;;4.50;;
28003;SDS011;15330;51.234;6.754;2023-03-15T15:25:41;21.63;;;9.95;;
28003;SDS011;15330;51.234;6.754;2023-03-15T15:28:07;7.68;;;2.83;;
28003;SDS011;15330;51.234;6.754;2023-03-15T15:30:33;12.90;;;5.80;;
28003;SDS011;15330;51.234;6.754;2023-03-15T15:32:58;17.27;;;7.95;;
28003;SDS011;15330;51.234;6.754;2023-03-15T15:35:24;11.35;;;4.80;;
28003;SDS011;15330;51.234;6.754;2023-03-15T15:37:50;20.75;;;10.55;;
28003;SDS011;15330;51.234;6.754;2023-03-15T15:40:20;6.50;;;2.33;;
28003;SDS011;15330;51.234;6.754;2023-03-15T15:42:53;16.38;;;7.53;;
28003;SDS011;15330;51.234;6.754;2023-03-15T15:45:19;8.55;;;2.60;;
28003;SDS011;15330;51.234;6.754;2023-03-15T15:47:45;31.17;;;12.60;;
28003;SDS011;15330;51.234;6.754;2023-03-15T15:50:15;10.73;;;4.03;;
28003;SDS011;15330;51.234;6.754;2023-03-15T15:52:42;12.02;;;4.57;;
28003;SDS011;15330;51.234;6.754;2023-03-15T15:55:11;15.32;;;4.20;;
28003;SDS011;15330;51.234;6.754;2023-03-15T15:57:40;8.45;;;3.13;;
28003;SDS011;15330;51.234;6.754;2023-03-15T16:00:07;10.60;;;3.40;;
28003;SDS011;15330;51.234;6.754;2023-03-15T16:02:37;6.93;;;2.50;;
28003;SDS011;15330;51.234;6.754;2023-03-15T16:05:03;17.00;;;6.32;;
28003;SDS011;15330;51.234;6.754;2023-03-15T16:07:29;9.35;;;2.38;;
28003;SDS011;15330;51.234;6.754;2023-03-15T16:09:55;7.55;;;2.65;;
28003;SDS011;15330;51.234;6.754;2023-03-15T16:12:23;6.88;;;2.00;;
28003;SDS011;15330;51.234;6.754;2023-03-15T16:14:49;6.43;;;2.00;;
28003;SDS011;15330;51.234;6.754;2023-03-15T16:17:22;5.65;;;2.25;;
28003;SDS011;15330;51.234;6.754;2023-03-15T16:19:51;8.75;;;2.63;;
28003;SDS011;15330;51.234;6.754;2023-03-15T16:22:19;11.98;;;2.83;;
28003;SDS011;15330;51.234;6.754;2023-03-15T16:24:49;10.07;;;2.63;;
28003;SDS011;15330;51.234;6.754;2023-03-15T16:27:20;9.02;;;2.08;;
28003;SDS011;15330;51.234;6.754;2023-03-15T16:29:48;11.38;;;4.57;;
28003;SDS011;15330;51.234;6.754;2023-03-15T16:32:15;11.00;;;2.03;;